sensor_id;sensor_type;location;lat;lon;timestamp;pressure;altitude;pressure_sealevel;temperature;humidity
19797;BME280;10058;57.654;12.044;2023-02-04T00:02:22;102481.81;;;-0.53;100.00
19797;BME280;10058;57.654;12.044;2023-02-04T00:04:48;102473.47;;;-0.15;100.00
19797;BME280;10058;57.654;12.044;2023-02-04T00:10:16;102478.28;;;-0.45;100.00
19797;BME280;10058;57.654;12.044;2023-02-04T00:12:42;102492.78;;;-0.30;100.00
19797;BME280;10058;57.654;12.044;2023-02-04T00:15:08;102500.88;;;-0.27;100.00
19797;BME280;10058;57.654;12.044;2023-02-04T00:17:34;102505.03;;;-0.46;100.00
19797;BME280;10058;57.654;12.044;2023-02-04T00:19:59;102508.69;;;-0.44;100.00
19797;BME280;10058;57.654;12.044;2023-02-04T00:22:25;102528.50;;;-0.10;100.00
19797;BME280;10058;57.654;12.044;2023-02-04T00:27:54;102531.25;;;-0.17;100.00
19797;BME280;10058;57.654;12.044;2023-02-04T00:30:20;102531.16;;;-0.71;100.00
19797;BME280;10058;57.654;12.044;2023-02-04T00:32:45;102529.63;;;-0.60;100.00
19797;BME280;10058;57.654;12.044;2023-02-04T00:35:10;102538.03;;;-0.62;100.00
19797;BME280;10058;57.654;12.044;2023-02-04T00:37:35;102541.69;;;-0.43;100.00
19797;BME280;10058;57.654;12.044;2023-02-04T00:40:00;102530.06;;;-0.21;100.00
19797;BME280;10058;57.654;12.044;2023-02-04T00:42:26;102529.75;;;-0.24;100.00
19797;BME280;10058;57.654;12.044;2023-02-04T00:47:54;102543.06;;;-0.90;100.00
19797;BME280;10058;57.654;12.044;2023-02-04T00:50:19;102547.78;;;-0.51;100.00
19797;BME280;10058;57.654;12.044;2023-02-04T00:52:44;102558.50;;;-0.65;100.00
19797;BME280;10058;57.654;12.044;2023-02-04T00:55:10;102554.91;;;-1.09;100.00
19797;BME280;10058;57.654;12.044;2023-02-04T00:57:36;102562.16;;;-0.89;100.00
19797;BME280;10058;57.654;12.044;2023-02-04T01:00:01;102579.47;;;-1.14;100.00
19797;BME280;10058;57.654;12.044;2023-02-04T01:02:26;102585.50;;;-0.89;100.00
19797;BME280;10058;57.654;12.044;2023-02-04T01:07:54;102596.44;;;-1.00;100.00
19797;BME280;10058;57.654;12.044;2023-02-04T01:10:19;102601.16;;;-1.14;100.00
19797;BME280;10058;57.654;12.044;2023-02-04T01:12:44;102605.69;;;-1.28;100.00
19797;BME280;10058;57.654;12.044;2023-02-04T01:15:10;102615.38;;;-1.10;100.00
19797;BME280;10058;57.654;12.044;2023-02-04T01:17:35;102610.94;;;-1.02;100.00
19797;BME280;10058;57.654;12.044;2023-02-04T01:20:00;102622.94;;;-1.53;100.00
19797;BME280;10058;57.654;12.044;2023-02-04T01:22:25;102623.91;;;-1.44;100.00
19797;BME280;10058;57.654;12.044;2023-02-04T01:27:53;102620.06;;;-1.23;100.00
19797;BME280;10058;57.654;12.044;2023-02-04T01:30:18;102633.72;;;-1.33;100.00
19797;BME280;10058;57.654;12.044;2023-02-04T01:32:44;102633.13;;;-1.30;100.00
19797;BME280;10058;57.654;12.044;2023-02-04T01:35:09;102633.72;;;-1.33;100.00
19797;BME280;10058;57.654;12.044;2023-02-04T01:37:34;102636.50;;;-1.56;100.00
19797;BME280;10058;57.654;12.044;2023-02-04T01:39:59;102637.03;;;-1.43;100.00
19797;BME280;10058;57.654;12.044;2023-02-04T01:42:24;102650.88;;;-1.51;100.00
19797;BME280;10058;57.654;12.044;2023-02-04T01:47:53;102672.91;;;-1.63;100.00
19797;BME280;10058;57.654;12.044;2023-02-04T01:50:18;102674.25;;;-1.66;100.00
19797;BME280;10058;57.654;12.044;2023-02-04T01:52:44;102682.53;;;-1.62;100.00
19797;BME280;10058;57.654;12.044;2023-02-04T01:55:11;102693.13;;;-1.76;100.00
19797;BME280;10058;57.654;12.044;2023-02-04T01:57:37;102694.06;;;-1.91;100.00
19797;BME280;10058;57.654;12.044;2023-02-04T02:00:02;102696.25;;;-2.19;100.00
19797;BME280;10058;57.654;12.044;2023-02-04T02:08:05;102707.94;;;-2.38;100.00
19797;BME280;10058;57.654;12.044;2023-02-04T02:10:31;102718.88;;;-2.25;100.00
19797;BME280;10058;57.654;12.044;2023-02-04T02:12:57;102716.81;;;-2.36;100.00
19797;BME280;10058;57.654;12.044;2023-02-04T02:15:23;102721.03;;;-2.52;100.00
19797;BME280;10058;57.654;12.044;2023-02-04T02:17:48;102732.16;;;-2.53;100.00
19797;BME280;10058;57.654;12.044;2023-02-04T02:20:15;102745.84;;;-2.54;100.00
19797;BME280;10058;57.654;12.044;2023-02-04T02:22:43;102745.50;;;-2.57;100.00
19797;BME280;10058;57.654;12.044;2023-02-04T02:28:16;102753.00;;;-2.67;100.00
19797;BME280;10058;57.654;12.044;2023-02-04T02:30:42;102758.56;;;-2.33;100.00
19797;BME280;10058;57.654;12.044;2023-02-04T02:33:09;102773.25;;;-2.40;100.00
19797;BME280;10058;57.654;12.044;2023-02-04T02:35:34;102772.09;;;-2.35;100.00
19797;BME280;10058;57.654;12.044;2023-02-04T02:38:00;102780.84;;;-2.42;100.00
19797;BME280;10058;57.654;12.044;2023-02-04T02:40:25;102787.03;;;-2.49;100.00
19797;BME280;10058;57.654;12.044;2023-02-04T02:42:50;102788.53;;;-2.73;100.00
19797;BME280;10058;57.654;12.044;2023-02-04T02:48:20;102807.09;;;-2.77;100.00
19797;BME280;10058;57.654;12.044;2023-02-04T02:50:45;102806.44;;;-2.68;100.00
19797;BME280;10058;57.654;12.044;2023-02-04T02:53:12;102812.53;;;-2.67;100.00
19797;BME280;10058;57.654;12.044;2023-02-04T02:55:38;102818.47;;;-2.68;100.00
19797;BME280;10058;57.654;12.044;2023-02-04T02:58:03;102836.06;;;-2.96;100.00
19797;BME280;10058;57.654;12.044;2023-02-04T03:00:29;102839.63;;;-2.79;100.00
19797;BME280;10058;57.654;12.044;2023-02-04T03:08:26;102859.91;;;-2.98;100.00
19797;BME280;10058;57.654;12.044;2023-02-04T03:10:51;102864.09;;;-2.92;100.00
19797;BME280;10058;57.654;12.044;2023-02-04T03:13:17;102862.50;;;-2.98;100.00
19797;BME280;10058;57.654;12.044;2023-02-04T03:15:43;102871.47;;;-2.88;100.00
19797;BME280;10058;57.654;12.044;2023-02-04T03:18:10;102867.59;;;-2.91;100.00
19797;BME280;10058;57.654;12.044;2023-02-04T03:20:36;102874.78;;;-2.89;100.00
19797;BME280;10058;57.654;12.044;2023-02-04T03:23:02;102887.34;;;-2.85;100.00
19797;BME280;10058;57.654;12.044;2023-02-04T03:28:29;102889.63;;;-2.95;100.00
19797;BME280;10058;57.654;12.044;2023-02-04T03:30:55;102895.56;;;-2.96;100.00
19797;BME280;10058;57.654;12.044;2023-02-04T03:33:21;102904.88;;;-3.12;100.00
19797;BME280;10058;57.654;12.044;2023-02-04T03:35:47;102905.16;;;-2.95;100.00
19797;BME280;10058;57.654;12.044;2023-02-04T03:38:12;102870.00;;;-3.23;100.00
19797;BME280;10058;57.654;12.044;2023-02-04T03:40:37;102919.00;;;-2.94;100.00
19797;BME280;10058;57.654;12.044;2023-02-04T03:43:02;102917.75;;;-3.05;100.00
19797;BME280;10058;57.654;12.044;2023-02-04T03:48:30;102925.97;;;-3.23;100.00
19797;BME280;10058;57.654;12.044;2023-02-04T03:50:55;102927.75;;;-3.08;100.00
19797;BME280;10058;57.654;12.044;2023-02-04T03:53:20;102931.44;;;-3.06;100.00
19797;BME280;10058;57.654;12.044;2023-02-04T03:55:46;102936.50;;;-3.14;100.00
19797;BME280;10058;57.654;12.044;2023-02-04T03:58:11;102951.78;;;-3.09;100.00
19797;BME280;10058;57.654;12.044;2023-02-04T04:00:36;102963.97;;;-3.08;100.00
19797;BME280;10058;57.654;12.044;2023-02-04T04:03:01;102967.66;;;-3.06;100.00
19797;BME280;10058;57.654;12.044;2023-02-04T04:08:29;102984.44;;;-3.54;100.00
19797;BME280;10058;57.654;12.044;2023-02-04T04:10:54;102981.63;;;-3.41;100.00
19797;BME280;10058;57.654;12.044;2023-02-04T04:13:19;102988.31;;;-3.57;100.00
19797;BME280;10058;57.654;12.044;2023-02-04T04:15:45;103007.91;;;-3.66;100.00
19797;BME280;10058;57.654;12.044;2023-02-04T04:18:10;103002.72;;;-3.59;100.00
19797;BME280;10058;57.654;12.044;2023-02-04T04:20:35;103013.59;;;-3.55;100.00
19797;BME280;10058;57.654;12.044;2023-02-04T04:23:00;103022.09;;;-3.56;100.00
19797;BME280;10058;57.654;12.044;2023-02-04T04:28:28;103027.69;;;-3.81;100.00
19797;BME280;10058;57.654;12.044;2023-02-04T04:30:53;103036.47;;;-4.22;100.00
19797;BME280;10058;57.654;12.044;2023-02-04T04:33:18;103046.81;;;-4.22;100.00
19797;BME280;10058;57.654;12.044;2023-02-04T04:35:43;103049.56;;;-4.34;100.00
19797;BME280;10058;57.654;12.044;2023-02-04T04:38:09;103055.97;;;-4.45;100.00
19797;BME280;10058;57.654;12.044;2023-02-04T04:40:34;103060.00;;;-4.54;100.00
19797;BME280;10058;57.654;12.044;2023-02-04T04:42:59;103070.63;;;-4.65;100.00
19797;BME280;10058;57.654;12.044;2023-02-04T04:48:33;103082.28;;;-4.96;100.00
19797;BME280;10058;57.654;12.044;2023-02-04T04:50:58;103088.56;;;-4.94;100.00
19797;BME280;10058;57.654;12.044;2023-02-04T04:53:23;103085.91;;;-5.08;100.00
19797;BME280;10058;57.654;12.044;2023-02-04T04:55:48;103086.84;;;-5.07;100.00
19797;BME280;10058;57.654;12.044;2023-02-04T04:58:13;103101.56;;;-5.33;100.00
19797;BME280;10058;57.654;12.044;2023-02-04T05:00:39;103091.56;;;-5.44;100.00
19797;BME280;10058;57.654;12.044;2023-02-04T05:03:05;103087.44;;;-5.30;100.00
19797;BME280;10058;57.654;12.044;2023-02-04T05:08:33;103106.72;;;-5.33;100.00
19797;BME280;10058;57.654;12.044;2023-02-04T05:10:59;103105.16;;;-5.45;100.00
19797;BME280;10058;57.654;12.044;2023-02-04T05:13:25;103101.88;;;-5.44;100.00
19797;BME280;10058;57.654;12.044;2023-02-04T05:15:50;103113.22;;;-5.49;100.00
19797;BME280;10058;57.654;12.044;2023-02-04T05:18:15;103109.94;;;-5.48;100.00
19797;BME280;10058;57.654;12.044;2023-02-04T05:20:40;103111.88;;;-5.80;100.00
19797;BME280;10058;57.654;12.044;2023-02-04T05:23:05;103114.16;;;-5.69;100.00
19797;BME280;10058;57.654;12.044;2023-02-04T05:28:33;103121.84;;;-5.76;100.00
19797;BME280;10058;57.654;12.044;2023-02-04T05:30:58;103125.56;;;-5.74;100.00
19797;BME280;10058;57.654;12.044;2023-02-04T05:33:23;103108.78;;;-5.97;100.00
19797;BME280;10058;57.654;12.044;2023-02-04T05:35:49;103134.00;;;-6.14;100.00
19797;BME280;10058;57.654;12.044;2023-02-04T05:38:14;103135.03;;;-6.19;100.00
19797;BME280;10058;57.654;12.044;2023-02-04T05:40:39;103134.00;;;-6.14;100.00
19797;BME280;10058;57.654;12.044;2023-02-04T05:43:04;103130.69;;;-6.13;100.00
19797;BME280;10058;57.654;12.044;2023-02-04T05:48:32;103135.44;;;-6.16;100.00
19797;BME280;10058;57.654;12.044;2023-02-04T05:50:57;103149.34;;;-6.21;100.00
19797;BME280;10058;57.654;12.044;2023-02-04T05:53:22;103156.47;;;-6.39;100.00
19797;BME280;10058;57.654;12.044;2023-02-04T05:55:47;103156.38;;;-6.33;100.00
19797;BME280;10058;57.654;12.044;2023-02-04T05:58:13;103163.78;;;-6.29;100.00
19797;BME280;10058;57.654;12.044;2023-02-04T06:00:38;103166.97;;;-6.24;100.00
19797;BME280;10058;57.654;12.044;2023-02-04T06:03:03;103172.47;;;-6.41;100.00
19797;BME280;10058;57.654;12.044;2023-02-04T06:08:31;103198.50;;;-6.58;100.00
19797;BME280;10058;57.654;12.044;2023-02-04T06:10:56;103187.41;;;-6.64;100.00
19797;BME280;10058;57.654;12.044;2023-02-04T06:13:22;103180.41;;;-6.65;100.00
19797;BME280;10058;57.654;12.044;2023-02-04T06:15:47;103189.84;;;-6.71;100.00
19797;BME280;10058;57.654;12.044;2023-02-04T06:18:12;103199.44;;;-6.83;100.00
19797;BME280;10058;57.654;12.044;2023-02-04T06:20:38;103198.94;;;-6.80;100.00
19797;BME280;10058;57.654;12.044;2023-02-04T06:23:03;103210.25;;;-6.60;100.00
19797;BME280;10058;57.654;12.044;2023-02-04T06:28:31;103227.00;;;-6.82;100.00
19797;BME280;10058;57.654;12.044;2023-02-04T06:30:56;103225.66;;;-6.85;100.00
19797;BME280;10058;57.654;12.044;2023-02-04T06:33:21;103227.38;;;-6.91;100.00
19797;BME280;10058;57.654;12.044;2023-02-04T06:35:48;103229.44;;;-6.89;100.00
19797;BME280;10058;57.654;12.044;2023-02-04T06:38:13;103232.53;;;-6.91;100.00
19797;BME280;10058;57.654;12.044;2023-02-04T06:40:38;103236.56;;;-6.93;100.00
19797;BME280;10058;57.654;12.044;2023-02-04T06:43:03;103245.38;;;-6.91;100.00
19797;BME280;10058;57.654;12.044;2023-02-04T06:48:31;103257.28;;;-7.05;100.00
19797;BME280;10058;57.654;12.044;2023-02-04T06:50:57;103261.06;;;-7.08;100.00
19797;BME280;10058;57.654;12.044;2023-02-04T06:53:22;103267.69;;;-7.10;100.00
19797;BME280;10058;57.654;12.044;2023-02-04T06:55:47;103260.06;;;-7.16;100.00
19797;BME280;10058;57.654;12.044;2023-02-04T06:58:12;103269.19;;;-7.18;100.00
19797;BME280;10058;57.654;12.044;2023-02-04T07:00:38;103269.63;;;-7.15;100.00
19797;BME280;10058;57.654;12.044;2023-02-04T07:03:03;103270.03;;;-7.12;100.00
19797;BME280;10058;57.654;12.044;2023-02-04T07:08:31;103277.78;;;-6.99;100.00
19797;BME280;10058;57.654;12.044;2023-02-04T07:10:57;103278.41;;;-6.94;100.00
19797;BME280;10058;57.654;12.044;2023-02-04T07:13:22;103277.38;;;-6.89;100.00
19797;BME280;10058;57.654;12.044;2023-02-04T07:15:48;103275.84;;;-6.94;100.00
19797;BME280;10058;57.654;12.044;2023-02-04T07:18:13;103279.41;;;-6.99;100.00
19797;BME280;10058;57.654;12.044;2023-02-04T07:20:39;103278.78;;;-7.04;100.00
19797;BME280;10058;57.654;12.044;2023-02-04T07:23:04;103287.56;;;-6.96;100.00
19797;BME280;10058;57.654;12.044;2023-02-04T07:28:31;103299.50;;;-6.84;100.00
19797;BME280;10058;57.654;12.044;2023-02-04T07:30:57;103297.44;;;-6.74;100.00
19797;BME280;10058;57.654;12.044;2023-02-04T07:33:22;103305.50;;;-6.78;100.00
19797;BME280;10058;57.654;12.044;2023-02-04T07:35:47;103303.94;;;-6.58;100.00
19797;BME280;10058;57.654;12.044;2023-02-04T07:38:12;103307.56;;;-6.38;100.00
19797;BME280;10058;57.654;12.044;2023-02-04T07:40:37;103302.66;;;-6.23;100.00
19797;BME280;10058;57.654;12.044;2023-02-04T07:43:03;103305.09;;;-6.05;100.00
19797;BME280;10058;57.654;12.044;2023-02-04T07:48:31;103308.09;;;-5.70;100.00
19797;BME280;10058;57.654;12.044;2023-02-04T07:50:56;103315.28;;;-5.54;100.00
19797;BME280;10058;57.654;12.044;2023-02-04T07:53:21;103317.38;;;-5.65;100.00
19797;BME280;10058;57.654;12.044;2023-02-04T07:55:46;103318.19;;;-5.58;100.00
19797;BME280;10058;57.654;12.044;2023-02-04T07:58:11;103320.44;;;-5.54;100.00
19797;BME280;10058;57.654;12.044;2023-02-04T08:00:37;103321.63;;;-5.45;100.00
19797;BME280;10058;57.654;12.044;2023-02-04T08:03:02;103322.97;;;-5.42;100.00
19797;BME280;10058;57.654;12.044;2023-02-04T08:08:30;103320.34;;;-5.29;100.00
19797;BME280;10058;57.654;12.044;2023-02-04T08:10:55;103317.97;;;-5.28;100.00
19797;BME280;10058;57.654;12.044;2023-02-04T08:13:20;103311.88;;;-5.28;100.00
19797;BME280;10058;57.654;12.044;2023-02-04T08:15:46;103320.81;;;-5.19;100.00
19797;BME280;10058;57.654;12.044;2023-02-04T08:18:11;103327.81;;;-5.18;100.00
19797;BME280;10058;57.654;12.044;2023-02-04T08:20:36;103332.25;;;-5.17;100.00
19797;BME280;10058;57.654;12.044;2023-02-04T08:23:01;103324.16;;;-5.20;100.00
19797;BME280;10058;57.654;12.044;2023-02-04T08:28:29;103339.47;;;-4.95;100.00
19797;BME280;10058;57.654;12.044;2023-02-04T08:30:54;103345.09;;;-4.84;100.00
19797;BME280;10058;57.654;12.044;2023-02-04T08:33:20;103345.28;;;-4.63;100.00
19797;BME280;10058;57.654;12.044;2023-02-04T08:35:46;103344.56;;;-4.62;100.00
19797;BME280;10058;57.654;12.044;2023-02-04T08:38:11;103349.91;;;-4.61;100.00
19797;BME280;10058;57.654;12.044;2023-02-04T08:40:36;103350.13;;;-4.59;100.00
19797;BME280;10058;57.654;12.044;2023-02-04T08:43:01;103344.66;;;-4.48;100.00
19797;BME280;10058;57.654;12.044;2023-02-04T08:48:30;103359.69;;;-4.11;100.00
19797;BME280;10058;57.654;12.044;2023-02-04T08:50:55;103357.63;;;-3.87;100.00
19797;BME280;10058;57.654;12.044;2023-02-04T08:53:20;103363.00;;;-3.78;100.00
19797;BME280;10058;57.654;12.044;2023-02-04T08:55:45;103370.09;;;-3.63;100.00
19797;BME280;10058;57.654;12.044;2023-02-04T09:01:13;103370.69;;;-3.59;100.00
19797;BME280;10058;57.654;12.044;2023-02-04T09:03:39;103374.38;;;-3.64;100.00
19797;BME280;10058;57.654;12.044;2023-02-04T09:09:07;103389.63;;;-3.72;100.00
19797;BME280;10058;57.654;12.044;2023-02-04T09:11:32;103398.28;;;-3.79;100.00
19797;BME280;10058;57.654;12.044;2023-02-04T09:13:57;103392.16;;;-3.87;100.00
19797;BME280;10058;57.654;12.044;2023-02-04T09:16:22;103389.44;;;-3.81;100.00
19797;BME280;10058;57.654;12.044;2023-02-04T09:18:47;103386.47;;;-3.77;100.00
19797;BME280;10058;57.654;12.044;2023-02-04T09:21:13;103392.03;;;-3.74;100.00
19797;BME280;10058;57.654;12.044;2023-02-04T09:23:38;103394.59;;;-3.81;100.00
19797;BME280;10058;57.654;12.044;2023-02-04T09:29:06;103395.06;;;-3.64;100.00
19797;BME280;10058;57.654;12.044;2023-02-04T09:31:31;103395.06;;;-3.64;100.00
19797;BME280;10058;57.654;12.044;2023-02-04T09:33:56;103394.00;;;-3.44;100.00
19797;BME280;10058;57.654;12.044;2023-02-04T09:36:21;103387.81;;;-3.25;100.00
19797;BME280;10058;57.654;12.044;2023-02-04T09:38:47;103391.22;;;-3.12;100.00
19797;BME280;10058;57.654;12.044;2023-02-04T09:41:12;103392.34;;;-2.89;100.00
19797;BME280;10058;57.654;12.044;2023-02-04T09:43:39;103393.13;;;-2.83;100.00
19797;BME280;10058;57.654;12.044;2023-02-04T09:49:08;103389.81;;;-2.67;100.00
19797;BME280;10058;57.654;12.044;2023-02-04T09:51:34;103392.41;;;-2.60;100.00
19797;BME280;10058;57.654;12.044;2023-02-04T09:54:21;103394.59;;;-2.56;100.00
19797;BME280;10058;57.654;12.044;2023-02-04T09:56:45;103402.41;;;-2.63;100.00
19797;BME280;10058;57.654;12.044;2023-02-04T09:59:15;103402.59;;;-2.48;100.00
19797;BME280;10058;57.654;12.044;2023-02-04T10:01:40;103404.06;;;-2.14;100.00
19797;BME280;10058;57.654;12.044;2023-02-04T10:04:07;103402.38;;;-1.99;100.00
19797;BME280;10058;57.654;12.044;2023-02-04T10:09:36;103389.75;;;-1.75;100.00
19797;BME280;10058;57.654;12.044;2023-02-04T10:12:02;103394.75;;;-1.77;100.00
19797;BME280;10058;57.654;12.044;2023-02-04T10:14:27;103396.41;;;-1.77;100.00
19797;BME280;10058;57.654;12.044;2023-02-04T10:16:53;103394.50;;;-1.64;100.00
19797;BME280;10058;57.654;12.044;2023-02-04T10:19:20;103400.44;;;-1.72;100.00
19797;BME280;10058;57.654;12.044;2023-02-04T10:21:45;103398.22;;;-1.62;100.00
19797;BME280;10058;57.654;12.044;2023-02-04T10:24:18;103393.53;;;-1.50;100.00
19797;BME280;10058;57.654;12.044;2023-02-04T10:29:56;103383.34;;;-1.49;100.00
19797;BME280;10058;57.654;12.044;2023-02-04T10:32:25;103382.41;;;-1.42;100.00
19797;BME280;10058;57.654;12.044;2023-02-04T10:34:55;103382.16;;;-1.29;100.00
19797;BME280;10058;57.654;12.044;2023-02-04T10:37:21;103385.31;;;-1.32;100.00
19797;BME280;10058;57.654;12.044;2023-02-04T10:39:46;103391.03;;;-1.27;100.00
19797;BME280;10058;57.654;12.044;2023-02-04T10:42:31;103397.16;;;-1.27;100.00
19797;BME280;10058;57.654;12.044;2023-02-04T10:47:59;103390.44;;;-1.18;100.00
19797;BME280;10058;57.654;12.044;2023-02-04T10:50:25;103401.72;;;-1.10;100.00
19797;BME280;10058;57.654;12.044;2023-02-04T10:52:51;103395.97;;;-1.08;100.00
19797;BME280;10058;57.654;12.044;2023-02-04T10:55:18;103398.00;;;-1.12;100.00
19797;BME280;10058;57.654;12.044;2023-02-04T10:57:44;103395.78;;;-1.16;100.00
19797;BME280;10058;57.654;12.044;2023-02-04T11:00:19;103400.59;;;-1.12;100.00
19797;BME280;10058;57.654;12.044;2023-02-04T11:02:58;103400.91;;;-1.02;100.00
19797;BME280;10058;57.654;12.044;2023-02-04T11:08:33;103418.34;;;-1.01;100.00
19797;BME280;10058;57.654;12.044;2023-02-04T11:10:59;103414.59;;;-0.89;100.00
19797;BME280;10058;57.654;12.044;2023-02-04T11:13:27;103411.19;;;-0.81;100.00
19797;BME280;10058;57.654;12.044;2023-02-04T11:16:07;103419.16;;;-0.86;100.00
19797;BME280;10058;57.654;12.044;2023-02-04T11:18:42;103373.47;;;-1.00;100.00
19797;BME280;10058;57.654;12.044;2023-02-04T11:21:12;103418.97;;;-0.81;100.00
19797;BME280;10058;57.654;12.044;2023-02-04T11:23:38;103426.66;;;-0.66;100.00
19797;BME280;10058;57.654;12.044;2023-02-04T11:39:21;103427.88;;;-0.86;100.00
19797;BME280;10058;57.654;12.044;2023-02-04T11:41:46;103421.19;;;-0.77;100.00
19797;BME280;10058;57.654;12.044;2023-02-04T11:44:12;103425.97;;;-0.73;100.00
19797;BME280;10058;57.654;12.044;2023-02-04T11:49:41;103418.09;;;-0.58;100.00
19797;BME280;10058;57.654;12.044;2023-02-04T11:52:06;103414.34;;;-0.53;100.00
19797;BME280;10058;57.654;12.044;2023-02-04T11:54:35;103410.56;;;-0.48;100.00
19797;BME280;10058;57.654;12.044;2023-02-04T11:57:01;103405.72;;;-0.45;100.00
19797;BME280;10058;57.654;12.044;2023-02-04T11:59:26;103399.03;;;-0.43;100.00
19797;BME280;10058;57.654;12.044;2023-02-04T12:02:02;103408.66;;;-0.35;100.00
19797;BME280;10058;57.654;12.044;2023-02-04T12:04:27;103406.09;;;-0.42;100.00
19797;BME280;10058;57.654;12.044;2023-02-04T12:09:55;103415.88;;;0.06;100.00
19797;BME280;10058;57.654;12.044;2023-02-04T12:12:22;103411.81;;;0.01;100.00
19797;BME280;10058;57.654;12.044;2023-02-04T12:14:54;103412.97;;;-0.20;100.00
19797;BME280;10058;57.654;12.044;2023-02-04T12:17:20;103408.88;;;-0.18;100.00
19797;BME280;10058;57.654;12.044;2023-02-04T12:19:45;103408.59;;;-0.12;100.00
19797;BME280;10058;57.654;12.044;2023-02-04T12:22:10;103404.69;;;-0.09;100.00
19797;BME280;10058;57.654;12.044;2023-02-04T12:27:38;103404.47;;;-0.03;100.00
19797;BME280;10058;57.654;12.044;2023-02-04T12:30:04;103404.63;;;-0.02;100.00
19797;BME280;10058;57.654;12.044;2023-02-04T12:32:29;103401.19;;;0.07;100.00
19797;BME280;10058;57.654;12.044;2023-02-04T12:34:54;103402.03;;;-0.02;100.00
19797;BME280;10058;57.654;12.044;2023-02-04T12:37:19;103401.41;;;0.01;100.00
19797;BME280;10058;57.654;12.044;2023-02-04T12:39:46;103389.63;;;0.12;100.00
19797;BME280;10058;57.654;12.044;2023-02-04T12:42:11;103398.38;;;0.28;100.00
19797;BME280;10058;57.654;12.044;2023-02-04T12:44:36;103396.13;;;0.47;100.00
19797;BME280;10058;57.654;12.044;2023-02-04T12:50:05;103407.84;;;0.59;100.00
19797;BME280;10058;57.654;12.044;2023-02-04T12:52:31;103411.16;;;0.49;100.00
19797;BME280;10058;57.654;12.044;2023-02-04T12:54:56;103408.09;;;0.53;100.00
19797;BME280;10058;57.654;12.044;2023-02-04T12:57:21;103406.53;;;0.62;100.00
19797;BME280;10058;57.654;12.044;2023-02-04T12:59:46;103409.03;;;0.54;100.00
19797;BME280;10058;57.654;12.044;2023-02-04T13:02:12;103400.22;;;0.60;100.00
19797;BME280;10058;57.654;12.044;2023-02-04T13:07:40;103401.66;;;0.50;100.00
19797;BME280;10058;57.654;12.044;2023-02-04T13:10:06;103395.84;;;0.52;100.00
19797;BME280;10058;57.654;12.044;2023-02-04T13:12:31;103384.94;;;0.63;100.00
19797;BME280;10058;57.654;12.044;2023-02-04T13:14:56;103384.78;;;0.46;100.00
19797;BME280;10058;57.654;12.044;2023-02-04T13:17:21;103384.59;;;0.60;100.00
19797;BME280;10058;57.654;12.044;2023-02-04T13:19:46;103385.28;;;0.66;100.00
19797;BME280;10058;57.654;12.044;2023-02-04T13:22:12;103386.22;;;0.51;100.00
19797;BME280;10058;57.654;12.044;2023-02-04T13:24:37;103390.91;;;0.62;100.00
19797;BME280;10058;57.654;12.044;2023-02-04T13:30:05;103391.06;;;0.80;100.00
19797;BME280;10058;57.654;12.044;2023-02-04T13:32:31;103383.06;;;0.78;100.00
19797;BME280;10058;57.654;12.044;2023-02-04T13:34:56;103385.50;;;0.77;100.00
19797;BME280;10058;57.654;12.044;2023-02-04T13:37:21;103386.69;;;0.72;100.00
19797;BME280;10058;57.654;12.044;2023-02-04T13:39:46;103381.06;;;0.76;100.00
19797;BME280;10058;57.654;12.044;2023-02-04T13:42:11;103386.66;;;0.87;100.00
19797;BME280;10058;57.654;12.044;2023-02-04T13:47:39;103385.69;;;0.62;100.00
19797;BME280;10058;57.654;12.044;2023-02-04T13:53:07;103392.34;;;0.67;100.00
19797;BME280;10058;57.654;12.044;2023-02-04T13:55:33;103387.63;;;0.56;100.00
19797;BME280;10058;57.654;12.044;2023-02-04T14:01:01;103381.94;;;0.67;100.00
19797;BME280;10058;57.654;12.044;2023-02-04T14:03:26;103382.00;;;0.60;100.00
19797;BME280;10058;57.654;12.044;2023-02-04T14:08:54;103381.03;;;0.51;100.00
19797;BME280;10058;57.654;12.044;2023-02-04T14:11:19;103389.25;;;0.47;100.00
19797;BME280;10058;57.654;12.044;2023-02-04T14:13:44;103383.75;;;0.37;100.00
19797;BME280;10058;57.654;12.044;2023-02-04T14:16:10;103387.38;;;0.30;100.00
19797;BME280;10058;57.654;12.044;2023-02-04T14:18:35;103388.31;;;0.31;100.00
19797;BME280;10058;57.654;12.044;2023-02-04T14:21:00;103378.56;;;0.37;100.00
19797;BME280;10058;57.654;12.044;2023-02-04T14:23:25;103382.53;;;0.33;100.00
19797;BME280;10058;57.654;12.044;2023-02-04T14:28:53;103382.75;;;0.28;100.00
19797;BME280;10058;57.654;12.044;2023-02-04T14:31:18;103383.69;;;0.28;100.00
19797;BME280;10058;57.654;12.044;2023-02-04T14:33:44;103381.72;;;0.19;100.00
19797;BME280;10058;57.654;12.044;2023-02-04T14:36:09;103384.34;;;0.19;100.00
19797;BME280;10058;57.654;12.044;2023-02-04T14:38:34;103384.66;;;0.06;100.00
19797;BME280;10058;57.654;12.044;2023-02-04T14:40:59;103387.50;;;0.00;100.00
19797;BME280;10058;57.654;12.044;2023-02-04T14:43:25;103389.78;;;-0.03;100.00
19797;BME280;10058;57.654;12.044;2023-02-04T14:48:53;103386.47;;;-0.09;100.00
19797;BME280;10058;57.654;12.044;2023-02-04T14:51:18;103376.13;;;-0.16;100.00
19797;BME280;10058;57.654;12.044;2023-02-04T14:53:43;103381.16;;;-0.17;100.00
19797;BME280;10058;57.654;12.044;2023-02-04T14:56:09;103381.03;;;-0.19;100.00
19797;BME280;10058;57.654;12.044;2023-02-04T15:01:37;103395.28;;;-0.38;100.00
19797;BME280;10058;57.654;12.044;2023-02-04T15:04:02;103403.88;;;-0.46;100.00
19797;BME280;10058;57.654;12.044;2023-02-04T15:09:30;103410.22;;;-0.74;100.00
19797;BME280;10058;57.654;12.044;2023-02-04T15:11:55;103394.63;;;-0.51;100.00